Time;durP1;ratioP1;P1;durP2;ratioP2;P2;SDS_P1;SDS_P2;PMS_P1;PMS_P2;Temp;Humidity;BMP_temperature;BMP_pressure;BME280_temperature;BME280_humidity;BME280_pressure;Samples;Min_cycle;Max_cycle;Signal;HPM_P1;HPM_P2
2022/09/20 00:00:13;;;;;;;;;1.67;1.00;;;;;14.56;93.34;102160.75;5049455;28;53539;-76
2022/09/20 00:02:39;;;;;;;;;1.33;1.33;;;;;14.55;93.43;102157.22;5039442;28;46288;-77
2022/09/20 00:05:05;;;;;;;;;3.67;3.00;;;;;14.57;93.76;102162.53;5037989;28;53496;-76
2022/09/20 00:07:31;;;;;;;;;1.33;1.33;;;;;14.53;93.72;102160.69;5037528;28;45357;-75
2022/09/20 00:09:56;;;;;;;;;3.00;1.33;;;;;14.55;93.74;102167.84;5064509;28;45409;-76
2022/09/20 00:12:22;;;;;;;;;1.00;1.00;;;;;14.52;94.04;102165.13;5035587;28;45707;-75
2022/09/20 00:14:47;;;;;;;;;1.00;1.00;;;;;14.51;93.89;102163.34;5036069;28;45451;-76
2022/09/20 00:17:13;;;;;;;;;5.00;2.00;;;;;14.48;94.18;102157.06;5035430;28;58111;-76
2022/09/20 00:19:38;;;;;;;;;3.33;3.33;;;;;14.48;93.98;102160.63;5045253;28;47529;-76
2022/09/20 00:22:03;;;;;;;;;1.67;1.67;;;;;14.45;94.63;102160.56;5040339;28;47333;-75
2022/09/20 00:24:29;;;;;;;;;5.00;2.00;;;;;14.44;94.50;102163.19;5034850;28;62100;-74
2022/09/20 00:26:54;;;;;;;;;2.00;2.00;;;;;14.41;94.83;102161.38;5019981;28;45526;-76
2022/09/20 00:29:19;;;;;;;;;2.33;2.33;;;;;14.34;94.93;102149.75;5036714;28;45395;-78
2022/09/20 00:31:46;;;;;;;;;1.00;1.00;;;;;14.35;95.15;102156.84;5036876;28;46859;-75
2022/09/20 00:36:55;;;;;;;;;3.00;3.00;;;;;14.25;95.16;102157.56;5038049;28;45476;-74
2022/09/20 00:39:20;;;;;;;;;2.00;2.00;;;;;14.24;95.87;102161.09;5041302;28;55719;-74
2022/09/20 00:41:45;;;;;;;;;2.33;2.33;;;;;14.21;95.76;102153.03;5046396;28;71129;-76
2022/09/20 00:44:43;;;;;;;;;2.67;2.67;;;;;14.17;95.86;102151.22;5042044;28;45304;-75
2022/09/20 00:47:31;;;;;;;;;1.67;1.00;;;;;14.13;96.48;102152.94;5041046;28;45559;-77
2022/09/20 00:50:20;;;;;;;;;1.00;1.00;;;;;14.07;96.35;102144.84;5038562;28;45415;-74
2022/09/20 00:52:47;;;;;;;;;1.00;1.00;;;;;14.07;96.34;102149.28;5043859;28;46709;-77
2022/09/20 00:55:15;;;;;;;;;1.67;1.67;;;;;14.02;96.66;102141.22;5064437;28;45210;-74
2022/09/20 00:57:41;;;;;;;;;1.67;1.67;;;;;13.98;97.23;102142.03;5034148;28;58758;-74
2022/09/20 01:00:08;;;;;;;;;2.67;2.67;;;;;13.98;97.86;102147.34;5044740;28;45686;-76
2022/09/20 01:02:35;;;;;;;;;2.00;2.00;;;;;13.94;98.20;102150.78;5040100;28;46923;-75
2022/09/20 01:05:01;;;;;;;;;2.00;2.00;;;;;13.93;97.93;102158.75;5061992;28;45414;-74
2022/09/20 01:07:26;;;;;;;;;2.33;2.33;;;;;13.87;98.00;102151.56;5050804;28;60614;-75
2022/09/20 01:09:52;;;;;;;;;1.67;1.67;;;;;13.88;98.40;102163.97;5040957;28;45490;-73
2022/09/20 01:12:20;;;;;;;;;3.00;3.00;;;;;13.87;98.56;102155.09;5038196;28;59781;-75
2022/09/20 01:14:47;;;;;;;;;2.00;2.00;;;;;13.87;98.70;102157.75;5034228;28;45469;-74
2022/09/20 01:17:13;;;;;;;;;2.33;1.00;;;;;13.88;98.98;102156.00;5039249;28;45338;-75
2022/09/20 01:19:47;;;;;;;;;4.00;2.00;;;;;13.86;99.47;102152.44;5039713;28;57658;-74
2022/09/20 01:22:27;;;;;;;;;1.00;1.00;;;;;13.83;99.21;102144.41;5044751;28;47041;-75
2022/09/20 01:25:13;;;;;;;;;2.67;2.67;;;;;13.83;99.38;102139.09;5037605;28;45537;-77
2022/09/20 01:27:42;;;;;;;;;2.00;2.00;;;;;13.84;99.96;102133.78;5037722;28;45546;-75
2022/09/20 01:30:16;;;;;;;;;2.67;1.00;;;;;13.84;99.78;102140.88;5041233;28;45431;-75
2022/09/20 01:32:55;;;;;;;;;2.00;2.00;;;;;13.83;99.92;102137.31;5037229;28;48418;-74
2022/09/20 01:35:22;;;;;;;;;3.25;1.50;;;;;13.84;100.00;102140.88;5062749;28;45459;-77
2022/09/20 01:37:55;;;;;;;;;1.00;1.00;;;;;13.82;100.00;102138.19;5034100;28;45241;-75
2022/09/20 01:40:32;;;;;;;;;3.67;2.00;;;;;13.80;100.00;102134.63;5067144;28;45419;-76
2022/09/20 01:43:08;;;;;;;;;3.00;3.00;;;;;13.79;100.00;102129.28;5035879;28;45725;-76
2022/09/20 01:45:34;;;;;;;;;2.00;1.00;;;;;13.76;100.00;102124.81;5033056;28;45282;-75
2022/09/20 01:48:28;;;;;;;;;2.33;2.33;;;;;13.79;100.00;102114.22;5038147;28;49337;-74
2022/09/20 01:51:24;;;;;;;;;3.33;2.00;;;;;13.79;100.00;102129.28;5054416;28;45489;-76
2022/09/20 01:54:14;;;;;;;;;3.00;3.00;;;;;13.77;100.00;102138.97;5036753;28;46030;-78
2022/09/20 01:57:11;;;;;;;;;1.00;1.00;;;;;13.73;100.00;102145.09;5039153;28;45253;-76
2022/09/20 01:59:54;;;;;;;;;6.00;2.00;;;;;13.71;100.00;102141.53;5043046;28;45512;-75
2022/09/20 02:02:33;;;;;;;;;2.33;2.33;;;;;13.71;100.00;102141.53;5038416;28;45367;-75
2022/09/20 02:05:03;;;;;;;;;2.00;2.00;;;;;13.70;100.00;102145.06;5035663;28;45779;-76
2022/09/20 02:07:51;;;;;;;;;2.00;2.00;;;;;13.70;100.00;102142.41;5034355;28;45569;-76
2022/09/20 02:10:16;;;;;;;;;2.00;2.00;;;;;13.69;100.00;102143.22;5050218;28;45952;-75
2022/09/20 02:12:55;;;;;;;;;2.33;1.00;;;;;13.61;100.00;102138.69;5037913;28;45343;-74
2022/09/20 02:15:36;;;;;;;;;2.00;2.00;;;;;13.61;100.00;102143.09;5044521;28;47732;-74
2022/09/20 02:18:51;;;;;;;;;3.00;2.00;;;;;13.58;100.00;102138.66;5040896;28;45525;-77
2022/09/20 02:21:19;;;;;;;;;2.00;2.00;;;;;13.58;100.00;102138.66;5024442;28;45491;-74
2022/09/20 02:24:15;;;;;;;;;1.00;1.00;;;;;13.58;100.00;102137.72;5015531;28;45565;-74
2022/09/20 02:26:54;;;;;;;;;1.67;1.00;;;;;13.56;100.00;102137.69;5049715;28;47006;-76
2022/09/20 02:29:44;;;;;;;;;1.67;1.67;;;;;13.56;100.00;102137.69;5035298;28;45348;-74
2022/09/20 02:32:31;;;;;;;;;3.00;1.67;;;;;13.56;100.00;102129.72;5045195;28;45458;-76
2022/09/20 02:35:04;;;;;;;;;6.00;2.67;;;;;13.55;100.00;102130.59;5055508;28;45390;-75
2022/09/20 02:37:32;;;;;;;;;2.00;2.00;;;;;13.54;100.00;102143.84;5047513;28;45859;-76
2022/09/20 02:40:28;;;;;;;;;1.33;1.33;;;;;13.54;100.00;102143.84;5037151;28;45493;-75
2022/09/20 02:43:05;;;;;;;;;1.00;1.00;;;;;13.53;100.00;102137.66;5062283;28;45478;-75
2022/09/20 02:45:55;;;;;;;;;3.33;1.00;;;;;13.55;100.00;102130.59;5043898;28;45449;-75
2022/09/20 02:48:32;;;;;;;;;2.00;2.00;;;;;13.54;100.00;102134.13;5037265;28;46511;-76
2022/09/20 02:51:21;;;;;;;;;2.67;1.00;;;;;13.54;100.00;102134.13;5043472;28;45554;-74
2022/09/20 02:54:12;;;;;;;;;3.00;1.00;;;;;13.53;100.00;102144.69;5033137;28;45329;-74
2022/09/20 02:57:19;;;;;;;;;1.00;1.00;;;;;13.50;100.00;102142.00;5032465;28;45371;-78
2022/09/20 03:00:00;;;;;;;;;1.33;1.33;;;;;13.46;100.00;102146.34;5016573;28;47056;-74
2022/09/20 03:02:34;;;;;;;;;1.00;1.00;;;;;13.45;100.00;102139.25;5020473;28;45508;-75
2022/09/20 03:05:06;;;;;;;;;2.00;2.00;;;;;13.45;100.00;102141.91;5034217;28;45375;-74
2022/09/20 03:08:07;;;;;;;;;1.00;1.00;;;;;13.45;100.00;102131.28;5032954;28;45328;-75
2022/09/20 03:10:47;;;;;;;;;2.00;2.00;;;;;13.42;100.00;102131.22;5017475;28;46803;-76
2022/09/20 03:13:12;;;;;;;;;2.00;1.00;;;;;13.46;100.00;102133.06;5037028;28;45576;-75
2022/09/20 03:16:01;;;;;;;;;2.67;1.00;;;;;13.44;100.00;102134.81;5036716;28;45705;-75
2022/09/20 03:18:43;;;;;;;;;1.00;1.00;;;;;13.43;100.00;102140.97;5036845;28;45288;-75
2022/09/20 03:21:25;;;;;;;;;1.67;1.67;;;;;13.43;100.00;102134.78;5045856;28;45654;-75
2022/09/20 03:24:05;;;;;;;;;1.00;1.00;;;;;13.38;100.00;102136.44;5036629;28;45572;-74
2022/09/20 03:26:41;;;;;;;;;3.67;1.00;;;;;13.36;100.00;102144.34;5038793;28;45515;-75
2022/09/20 03:29:30;;;;;;;;;1.00;1.00;;;;;13.28;100.00;102127.41;5036463;28;45419;-74
2022/09/20 03:32:21;;;;;;;;;3.33;1.00;;;;;13.27;100.00;102145.09;5037053;28;46366;-75
2022/09/20 03:34:46;;;;;;;;;2.00;2.00;;;;;13.23;100.00;102134.38;5033506;28;45619;-74
2022/09/20 03:37:37;;;;;;;;;2.00;2.00;;;;;13.24;100.00;102133.50;5039266;28;45424;-76
2022/09/20 03:40:29;;;;;;;;;1.67;1.67;;;;;13.21;100.00;102128.09;5036547;28;45493;-75
2022/09/20 03:43:21;;;;;;;;;0.67;0.33;;;;;13.20;100.00;102132.50;5040741;28;46013;-74
2022/09/20 03:45:56;;;;;;;;;1.00;1.00;;;;;13.15;100.00;102133.25;5035597;28;45114;-75
2022/09/20 03:48:35;;;;;;;;;3.00;1.00;;;;;13.13;100.00;102135.91;5036372;28;45347;-74
2022/09/20 03:51:39;;;;;;;;;1.00;1.00;;;;;13.08;100.00;102133.13;5033342;28;45466;-74
2022/09/20 03:54:13;;;;;;;;;1.00;1.00;;;;;13.09;100.00;102140.22;5011078;28;45816;-75
2022/09/20 03:56:50;;;;;;;;;2.00;1.00;;;;;13.07;100.00;102138.41;5035335;28;45509;-74
2022/09/20 03:59:35;;;;;;;;;1.00;1.00;;;;;13.06;100.00;102145.47;5042330;28;45339;-75
2022/09/20 04:02:12;;;;;;;;;0.67;0.67;;;;;13.05;100.00;102132.19;5036938;28;45438;-74
2022/09/20 04:04:46;;;;;;;;;1.00;1.00;;;;;13.03;100.00;102131.25;5038278;28;46660;-76
2022/09/20 04:07:56;;;;;;;;;3.00;1.33;;;;;12.99;100.00;102134.69;5044024;28;45394;-74
2022/09/20 04:10:45;;;;;;;;;2.33;1.00;;;;;12.95;100.00;102133.75;5030928;28;47280;-76
2022/09/20 04:13:33;;;;;;;;;4.00;2.00;;;;;12.92;100.00;102135.44;5038685;28;45295;-74
2022/09/20 04:16:26;;;;;;;;;2.00;2.00;;;;;12.87;100.00;102127.38;5059414;28;45718;-76
2022/09/20 04:19:22;;;;;;;;;3.00;2.00;;;;;12.85;100.00;102140.59;5039216;28;45545;-75
2022/09/20 04:21:55;;;;;;;;;3.00;3.00;;;;;12.84;100.00;102143.22;5031914;28;45522;-75
2022/09/20 04:24:28;;;;;;;;;3.00;1.33;;;;;12.83;100.00;102139.66;5021286;28;45509;-75
2022/09/20 04:27:08;;;;;;;;;5.00;2.00;;;;;12.79;100.00;102139.56;5061328;28;46245;-74
2022/09/20 04:29:35;;;;;;;;;1.33;1.33;;;;;12.80;100.00;102149.31;5039215;28;45225;-77
2022/09/20 04:32:24;;;;;;;;;1.67;1.67;;;;;12.76;100.00;102150.97;5049165;28;45509;-74
2022/09/20 04:37:49;;;;;;;;;2.00;2.00;;;;;12.72;100.00;102153.50;5040040;28;45446;-78
2022/09/20 04:40:52;;;;;;;;;3.67;2.00;;;;;12.71;100.00;102152.63;5033932;28;64871;-75
2022/09/20 04:43:50;;;;;;;;;2.00;2.00;;;;;12.73;100.00;102158.88;5045213;28;45249;-75
2022/09/20 04:46:26;;;;;;;;;3.67;3.00;;;;;12.74;100.00;102167.72;5044776;28;45213;-80
2022/09/20 04:49:25;;;;;;;;;2.33;2.00;;;;;12.75;100.00;102161.56;5040129;28;45797;-74
2022/09/20 04:52:38;;;;;;;;;3.00;3.00;;;;;12.77;100.00;102162.47;5038581;28;45493;-72
2022/09/20 04:55:11;;;;;;;;;2.00;2.00;;;;;12.77;100.00;102160.72;5035378;28;45495;-76
2022/09/20 04:58:07;;;;;;;;;3.00;2.33;;;;;12.78;100.00;102164.25;5047101;28;45690;-75
2022/09/20 05:00:56;;;;;;;;;3.00;1.00;;;;;12.75;100.00;102154.50;5036244;28;45643;-76
2022/09/20 05:03:45;;;;;;;;;2.67;2.67;;;;;12.75;100.00;102161.56;5037395;28;45467;-74
2022/09/20 05:06:16;;;;;;;;;3.00;2.00;;;;;12.72;100.00;102149.09;5043912;28;45354;-74
2022/09/20 05:09:19;;;;;;;;;2.00;2.00;;;;;12.72;100.00;102148.22;5043621;28;45441;-75
2022/09/20 05:12:14;;;;;;;;;5.00;3.00;;;;;12.74;100.00;102147.41;5038166;28;46716;-76
2022/09/20 05:15:01;;;;;;;;;5.00;2.33;;;;;12.83;100.00;102157.31;5045069;28;45306;-74
2022/09/20 05:17:43;;;;;;;;;3.33;2.00;;;;;12.88;100.00;102160.06;5036863;28;45542;-71
2022/09/20 05:20:32;;;;;;;;;4.67;2.00;;;;;12.94;100.00;102155.78;5048542;28;45354;-72
2022/09/20 05:23:16;;;;;;;;;3.00;2.00;;;;;13.00;100.00;102150.66;5040701;28;46029;-73
2022/09/20 05:25:51;;;;;;;;;2.00;2.00;;;;;13.04;100.00;102148.94;5028435;28;45483;-72
2022/09/20 05:28:28;;;;;;;;;3.00;2.00;;;;;13.11;100.00;102145.59;5032955;28;45577;-72
2022/09/20 05:31:00;;;;;;;;;2.00;2.00;;;;;13.15;100.00;102141.22;5038254;28;45401;-70
2022/09/20 05:33:53;;;;;;;;;6.00;3.00;;;;;13.20;100.00;102150.16;5035636;28;45541;-71
2022/09/20 05:36:40;;;;;;;;;3.33;3.00;;;;;13.25;100.00;102160.03;5047721;28;45482;-71
2022/09/20 05:39:15;;;;;;;;;2.00;2.00;;;;;13.29;100.00;102153.97;5038146;28;45507;-71
2022/09/20 05:41:54;;;;;;;;;2.67;2.00;;;;;13.35;100.00;102158.50;5030637;28;45518;-72
2022/09/20 05:44:22;;;;;;;;;2.67;2.67;;;;;13.40;100.00;102156.81;5040592;28;46514;-70
2022/09/20 05:47:14;;;;;;;;;4.00;3.00;;;;;13.44;100.00;102157.78;5027070;28;45545;-73
2022/09/20 05:49:46;;;;;;;;;5.33;3.00;;;;;13.48;100.00;102160.56;5033509;28;45483;-71
2022/09/20 05:52:36;;;;;;;;;2.00;1.67;;;;;13.51;100.00;102160.59;5033631;28;45548;-72
2022/09/20 05:55:23;;;;;;;;;2.00;2.00;;;;;13.55;100.00;102167.75;5022329;28;47267;-71
2022/09/20 05:58:00;;;;;;;;;4.33;3.00;;;;;13.58;100.00;102172.22;5032714;28;45434;-71
2022/09/20 06:00:31;;;;;;;;;3.67;3.67;;;;;13.56;100.00;102172.19;5029412;28;45499;-70
2022/09/20 06:03:34;;;;;;;;;3.33;3.00;;;;;13.63;100.00;102174.13;5039915;28;45491;-71
2022/09/20 06:06:32;;;;;;;;;5.00;3.33;;;;;13.66;100.00;102173.28;5033135;28;45806;-70
2022/09/20 06:09:16;;;;;;;;;3.00;2.00;;;;;13.70;100.00;102179.56;5042236;28;45510;-71
2022/09/20 06:12:18;;;;;;;;;3.00;3.00;;;;;13.74;100.00;102170.75;5040910;28;45711;-70
2022/09/20 06:15:02;;;;;;;;;2.00;2.00;;;;;13.78;100.00;102176.16;5034535;28;45470;-71
2022/09/20 06:17:54;;;;;;;;;5.67;4.00;;;;;13.79;100.00;102169.09;5041405;28;46021;-71
2022/09/20 06:20:35;;;;;;;;;5.00;3.00;;;;;13.85;100.00;102185.16;5038573;28;45422;-71
2022/09/20 06:23:02;;;;;;;;;3.67;3.67;;;;;13.86;100.00;102184.28;5037428;28;45522;-71
2022/09/20 06:25:41;;;;;;;;;3.00;3.00;;;;;13.88;100.00;102186.09;5035623;28;45626;-72
2022/09/20 06:28:14;;;;;;;;;3.00;3.00;;;;;13.92;100.00;102204.75;5034607;28;45981;-71
2022/09/20 06:30:46;;;;;;;;;3.00;3.00;;;;;13.91;100.00;102203.88;5186702;22;46274;-70
2022/09/20 06:33:20;;;;;;;;;3.00;3.00;;;;;13.88;100.00;102211.75;5032882;28;45343;-71
2022/09/20 06:35:53;;;;;;;;;2.33;2.33;;;;;13.87;100.00;102216.19;5052895;28;45395;-71
2022/09/20 06:41:33;;;;;;;;;4.33;3.00;;;;;13.87;100.00;102209.97;5046476;28;45544;-77
2022/09/20 06:44:03;;;;;;;;;3.00;3.00;;;;;13.89;100.00;102210.88;5054735;28;45590;-71
2022/09/20 06:46:31;;;;;;;;;4.00;2.33;;;;;13.89;100.00;102211.78;5056869;28;45261;-71
2022/09/20 06:48:56;;;;;;;;;3.00;3.00;;;;;13.91;100.00;102208.28;5051263;28;46474;-70
2022/09/20 06:51:25;;;;;;;;;2.67;2.67;;;;;13.91;100.00;102206.53;5037276;28;45561;-70
2022/09/20 06:53:51;;;;;;;;;5.00;4.00;;;;;13.92;100.00;102199.44;5038560;28;45497;-71
2022/09/20 06:56:29;;;;;;;;;3.00;3.00;;;;;13.97;100.00;102213.72;5038101;28;45524;-70
2022/09/20 06:58:54;;;;;;;;;4.67;3.67;;;;;13.95;100.00;102202.16;5030644;28;46412;-69
2022/09/20 07:01:20;;;;;;;;;5.00;3.00;;;;;14.02;100.00;102212.94;5055168;28;66247;-70
2022/09/20 07:03:45;;;;;;;;;4.67;3.33;;;;;14.00;100.00;102198.72;5037277;28;45256;-69
2022/09/20 07:06:11;;;;;;;;;5.67;4.33;;;;;14.05;100.00;102201.44;5055076;28;45217;-70
2022/09/20 07:08:37;;;;;;;;;3.33;3.33;;;;;14.04;100.00;102191.69;5036600;28;45970;-70
2022/09/20 07:11:08;;;;;;;;;3.33;3.33;;;;;14.07;100.00;102205.94;5053862;28;45478;-70
2022/09/20 07:13:34;;;;;;;;;4.67;3.00;;;;;14.06;100.00;102201.50;5037161;28;45520;-69
2022/09/20 07:16:02;;;;;;;;;4.00;4.00;;;;;14.13;100.00;102207.81;5053462;28;45516;-70
2022/09/20 07:18:28;;;;;;;;;4.67;4.00;;;;;14.15;100.00;102209.63;5056404;28;46224;-69
2022/09/20 07:20:54;;;;;;;;;6.00;4.33;;;;;14.17;100.00;102209.66;5029651;28;45462;-69
2022/09/20 07:23:20;;;;;;;;;4.00;4.00;;;;;14.19;100.00;102217.66;5053239;28;45488;-70
2022/09/20 07:25:45;;;;;;;;;5.67;4.00;;;;;14.19;100.00;102215.00;5036085;28;45259;-70
2022/09/20 07:28:11;;;;;;;;;3.00;3.00;;;;;14.24;100.00;102221.28;5041922;28;46759;-70
2022/09/20 07:30:37;;;;;;;;;5.00;3.00;;;;;14.26;100.00;102216.88;5044665;28;62607;-69
2022/09/20 07:33:03;;;;;;;;;7.00;4.00;;;;;14.28;100.00;102226.69;5053431;28;45525;-69
2022/09/20 07:35:28;;;;;;;;;3.67;3.33;;;;;14.33;100.00;102219.69;5053686;28;58487;-69
2022/09/20 07:37:57;;;;;;;;;7.67;5.00;;;;;14.37;100.00;102221.53;5035742;28;47078;-69
2022/09/20 07:40:22;;;;;;;;;4.33;3.00;;;;;14.40;100.00;102228.66;5036938;28;46753;-69
2022/09/20 07:42:48;;;;;;;;;4.00;4.00;;;;;14.40;100.00;102216.28;5034426;28;64022;-69
2022/09/20 07:45:13;;;;;;;;;5.00;5.00;;;;;14.39;100.00;102203.88;5037082;28;56675;-69
2022/09/20 07:47:40;;;;;;;;;4.00;3.00;;;;;14.50;100.00;102217.38;5050789;28;69891;-69
2022/09/20 07:50:08;;;;;;;;;4.00;4.00;;;;;14.59;100.00;102227.25;5054122;28;45565;-70
2022/09/20 07:52:34;;;;;;;;;5.33;4.00;;;;;14.63;100.00;102237.97;5054073;28;46266;-69
2022/09/20 07:54:59;;;;;;;;;6.33;4.00;;;;;14.68;100.00;102230.94;5054013;28;45419;-69
2022/09/20 07:57:24;;;;;;;;;4.00;4.00;;;;;14.72;100.00;102229.25;5052960;28;68249;-69
2022/09/20 07:59:50;;;;;;;;;5.00;4.00;;;;;14.79;100.00;102233.78;5045505;28;45478;-69
2022/09/20 08:02:15;;;;;;;;;5.00;4.00;;;;;14.83;100.00;102235.63;5054048;28;58464;-70
2022/09/20 08:04:40;;;;;;;;;4.00;4.00;;;;;14.89;100.00;102240.16;5033597;28;45561;-70
2022/09/20 08:07:06;;;;;;;;;6.67;5.00;;;;;14.92;100.00;102249.09;5049178;28;66876;-69
2022/09/20 08:09:31;;;;;;;;;4.00;4.00;;;;;14.92;100.00;102238.44;5049799;28;45517;-70
2022/09/20 08:11:57;;;;;;;;;5.00;4.00;;;;;14.99;100.00;102239.44;5052788;28;56970;-69
2022/09/20 08:14:23;;;;;;;;;7.00;6.00;;;;;15.00;100.00;102238.56;5054372;28;45589;-70
2022/09/20 08:16:50;;;;;;;;;6.33;5.33;;;;;15.06;100.00;102241.28;5053581;28;46579;-69
2022/09/20 08:19:18;;;;;;;;;5.00;5.00;;;;;15.07;100.00;102237.75;5053943;28;45500;-70
2022/09/20 08:21:43;;;;;;;;;5.67;3.33;;;;;15.13;100.00;102243.19;5053203;28;45305;-69
2022/09/20 08:24:09;;;;;;;;;5.00;5.00;;;;;15.20;100.00;102250.38;5035608;28;45539;-69
2022/09/20 08:26:35;;;;;;;;;8.00;4.00;;;;;15.27;100.00;102253.13;5051383;28;68503;-69
2022/09/20 08:29:00;;;;;;;;;5.67;4.00;;;;;15.34;100.00;102257.66;5051295;28;45529;-70
2022/09/20 08:31:33;;;;;;;;;5.67;4.33;;;;;15.37;100.00;102247.06;5053964;28;58312;-69
2022/09/20 08:34:01;;;;;;;;;6.00;6.00;;;;;15.44;100.00;102252.50;5018636;28;45482;-69
2022/09/20 08:36:27;;;;;;;;;8.00;6.00;;;;;15.50;100.00;102246.38;5052322;28;45997;-69
2022/09/20 08:38:52;;;;;;;;;5.00;4.67;;;;;15.53;100.00;102245.50;5053013;28;68498;-70
2022/09/20 08:41:25;;;;;;;;;8.67;5.00;;;;;15.61;100.00;102247.41;5047319;28;45404;-70
2022/09/20 08:43:53;;;;;;;;;4.00;4.00;;;;;15.63;100.00;102256.34;5028983;28;45268;-70
2022/09/20 08:46:21;;;;;;;;;9.00;6.00;;;;;15.70;100.00;102255.53;5053450;28;45418;-69
2022/09/20 08:48:47;;;;;;;;;6.67;5.33;;;;;15.76;100.00;102261.81;5053372;28;45548;-70
2022/09/20 08:51:14;;;;;;;;;6.33;6.00;;;;;15.77;100.00;102243.22;5053609;28;45489;-70
2022/09/20 08:53:45;;;;;;;;;7.67;4.00;;;;;15.88;100.00;102252.22;5035328;28;45548;-70
2022/09/20 08:56:10;;;;;;;;;7.00;4.00;;;;;15.98;100.00;102262.13;5041720;28;46440;-69
2022/09/20 08:58:37;;;;;;;;;6.00;6.00;;;;;16.06;100.00;102259.53;5038466;28;66463;-69
2022/09/20 09:01:02;;;;;;;;;7.67;4.67;;;;;16.15;100.00;102266.72;5038839;28;45340;-69
2022/09/20 09:03:27;;;;;;;;;7.00;6.00;;;;;16.22;100.00;102269.47;5050442;28;62346;-70
2022/09/20 09:05:54;;;;;;;;;4.67;4.67;;;;;16.24;100.00;102265.06;5056792;28;66170;-70
2022/09/20 09:08:37;;;;;;;;;7.33;7.33;;;;;16.33;100.00;102268.69;5055034;28;45439;-69
2022/09/20 09:11:08;;;;;;;;;6.00;6.00;;;;;16.36;100.00;102271.41;5055805;28;45514;-69
2022/09/20 09:13:51;;;;;;;;;5.33;5.33;;;;;16.36;100.00;102261.63;5040682;28;45481;-69
2022/09/20 09:16:18;;;;;;;;;5.67;5.67;;;;;16.46;100.00;102266.19;5048591;28;46942;-69
2022/09/20 09:18:45;;;;;;;;;6.33;5.33;;;;;16.54;100.00;102271.56;5055416;28;45379;-70
2022/09/20 09:21:22;;;;;;;;;6.33;4.00;;;;;16.61;100.00;102265.41;5050052;28;45533;-70
2022/09/20 09:24:01;;;;;;;;;5.00;5.00;;;;;16.67;100.00;102267.22;5029921;28;45728;-70
2022/09/20 09:26:27;;;;;;;;;7.67;4.67;;;;;16.73;100.00;102265.56;5052382;28;47519;-70
2022/09/20 09:29:18;;;;;;;;;5.00;5.00;;;;;16.86;100.00;102266.53;5054813;28;45545;-69
2022/09/20 09:31:50;;;;;;;;;10.67;6.00;;;;;16.94;100.00;102258.63;5025802;28;45861;-70
2022/09/20 09:34:29;;;;;;;;;6.00;6.00;;;;;17.06;100.00;102265.81;5038047;28;45886;-70
2022/09/20 09:36:55;;;;;;;;;6.67;5.67;;;;;17.12;100.00;102266.75;5037490;28;46479;-70
2022/09/20 09:39:34;;;;;;;;;7.00;6.00;;;;;17.16;100.00;102257.88;5053425;28;45585;-70
2022/09/20 09:41:59;;;;;;;;;8.33;5.33;;;;;17.24;99.81;102261.47;5036886;28;45545;-70
2022/09/20 09:44:31;;;;;;;;;7.00;5.67;;;;;17.28;100.00;102260.63;5054622;28;45564;-70
2022/09/20 09:46:57;;;;;;;;;5.33;5.33;;;;;17.33;99.89;102257.97;5053627;28;46514;-70
2022/09/20 09:49:23;;;;;;;;;10.67;6.00;;;;;17.41;99.75;102253.56;5036794;28;45496;-70
2022/09/20 09:52:12;;;;;;;;;7.00;6.33;;;;;17.46;99.35;102256.25;5045603;28;45479;-70
2022/09/20 09:54:38;;;;;;;;;7.33;7.33;;;;;17.46;98.92;102253.59;5046563;28;45481;-68
2022/09/20 09:57:32;;;;;;;;;8.00;6.00;;;;;17.46;98.77;102259.81;5042399;28;46820;-69
2022/09/20 10:00:06;;;;;;;;;7.67;5.00;;;;;17.44;98.88;102247.38;5047662;28;45401;-70
2022/09/20 10:02:49;;;;;;;;;6.67;5.00;;;;;17.46;98.36;102249.13;5056235;28;45530;-70
2022/09/20 10:05:30;;;;;;;;;6.00;6.00;;;;;17.48;98.54;102250.06;5057112;28;45769;-69
2022/09/20 10:08:17;;;;;;;;;4.33;4.33;;;;;17.50;98.64;102248.28;5039049;28;45303;-69
2022/09/20 10:11:11;;;;;;;;;6.00;6.00;;;;;17.52;98.40;102254.53;5057429;28;45426;-70
2022/09/20 10:14:05;;;;;;;;;6.33;5.00;;;;;17.55;98.23;102253.66;5054490;28;45363;-70
2022/09/20 10:16:53;;;;;;;;;5.33;5.33;;;;;17.59;99.07;102244.78;4980301;28;45317;-70
2022/09/20 10:19:30;;;;;;;;;5.00;3.67;;;;;17.60;99.09;102237.66;5057170;28;45744;-70
2022/09/20 10:22:11;;;;;;;;;6.00;4.00;;;;;17.65;98.50;102249.25;5056551;28;45474;-70
2022/09/20 10:24:42;;;;;;;;;6.00;5.00;;;;;17.69;98.09;102243.94;5056736;28;45578;-69
2022/09/20 10:27:25;;;;;;;;;4.00;3.00;;;;;17.74;97.47;102241.31;5053588;28;45515;-71
2022/09/20 10:30:10;;;;;;;;;2.00;2.00;;;;;17.79;97.13;102236.88;5056792;28;46679;-73
2022/09/20 10:32:50;;;;;;;;;4.33;3.67;;;;;17.86;96.67;102233.34;5056440;28;45460;-71
2022/09/20 10:35:26;;;;;;;;;5.00;4.00;;;;;17.96;97.18;102235.16;5039483;28;45399;-73
2022/09/20 10:38:04;;;;;;;;;6.67;2.00;;;;;18.09;96.88;102235.19;5038287;28;45578;-72
2022/09/20 10:43:32;;;;;;;;;3.00;3.00;;;;;18.39;95.88;102237.03;5056530;28;45455;-70
2022/09/20 10:46:25;;;;;;;;;5.00;2.67;;;;;18.52;95.61;102236.13;5053932;28;45617;-69
2022/09/20 10:49:22;;;;;;;;;6.33;3.00;;;;;18.64;95.22;102228.09;5049046;28;45510;-71
2022/09/20 10:51:50;;;;;;;;;6.67;5.00;;;;;18.74;94.54;102226.34;5037175;28;46802;-69
2022/09/20 10:54:31;;;;;;;;;3.00;3.00;;;;;18.86;94.43;102229.03;5043546;28;45487;-68
2022/09/20 10:57:17;;;;;;;;;4.33;4.33;;;;;18.92;93.32;102234.38;5027719;28;46333;-70
2022/09/20 11:00:13;;;;;;;;;5.00;4.00;;;;;19.05;93.27;102227.22;5048458;28;45250;-68
2022/09/20 11:03:05;;;;;;;;;7.67;4.00;;;;;19.19;93.16;102228.09;5033441;28;47698;-68
2022/09/20 11:05:42;;;;;;;;;4.00;4.00;;;;;19.29;92.94;102224.50;5009654;28;45637;-72
2022/09/20 11:08:14;;;;;;;;;6.00;4.33;;;;;19.37;92.80;102222.66;5044990;28;46825;-75
2022/09/20 11:10:48;;;;;;;;;7.33;5.33;;;;;19.47;92.16;102236.03;5049749;28;45465;-70
2022/09/20 11:13:26;;;;;;;;;6.33;3.33;;;;;19.51;91.07;102230.66;5033963;28;46502;-69
2022/09/20 11:15:59;;;;;;;;;5.67;4.00;;;;;19.53;91.26;102225.28;5034689;28;45510;-69
2022/09/20 11:18:51;;;;;;;;;7.00;4.00;;;;;19.54;90.74;102219.91;5036103;28;45505;-70
2022/09/20 11:21:27;;;;;;;;;8.00;5.00;;;;;19.59;90.56;102234.22;5054266;28;45469;-69
2022/09/20 11:24:00;;;;;;;;;7.67;7.00;;;;;19.63;90.17;102230.66;5051470;28;46265;-70
2022/09/20 11:26:43;;;;;;;;;6.33;4.67;;;;;19.66;89.11;102224.41;5048603;28;45722;-69
2022/09/20 11:29:34;;;;;;;;;5.67;5.00;;;;;19.67;89.51;102219.94;5054539;28;45534;-69
2022/09/20 11:32:11;;;;;;;;;4.33;4.33;;;;;19.65;88.26;102222.59;5051689;28;45449;-69
2022/09/20 11:34:48;;;;;;;;;7.33;6.33;;;;;19.68;88.43;102211.88;5055321;28;47458;-70
2022/09/20 11:37:15;;;;;;;;;4.33;4.00;;;;;19.71;88.22;102217.22;5055520;28;45965;-70
2022/09/20 11:39:53;;;;;;;;;2.00;2.00;;;;;19.78;89.07;102210.94;5038039;28;45310;-69
2022/09/20 11:42:21;;;;;;;;;2.00;2.00;;;;;19.85;88.94;102211.78;5056142;28;45338;-70
2022/09/20 11:44:47;;;;;;;;;2.33;2.33;;;;;19.89;88.49;102211.75;5037293;28;46833;-69
2022/09/20 11:47:14;;;;;;;;;2.67;1.33;;;;;19.96;88.47;102209.94;5055980;28;45347;-69
2022/09/20 11:49:52;;;;;;;;;2.33;0.33;;;;;19.96;88.57;102212.59;5036636;28;45342;-70
2022/09/20 11:52:54;;;;;;;;;0.33;0.33;;;;;19.96;87.57;102211.72;5051216;28;45368;-69
2022/09/20 11:55:31;;;;;;;;;1.00;0.33;;;;;19.90;86.58;102215.31;5048995;28;45978;-70
2022/09/20 11:58:06;;;;;;;;;0.67;0.33;;;;;19.83;86.63;102208.22;5065913;28;45469;-70
2022/09/20 12:00:35;;;;;;;;;1.33;0.33;;;;;19.81;86.51;102210.91;5036380;28;45325;-70
2022/09/20 12:03:03;;;;;;;;;3.33;0.33;;;;;19.84;86.69;102218.94;5042925;28;45317;-69
2022/09/20 12:05:28;;;;;;;;;0.33;0.33;;;;;19.86;86.27;102222.50;5025892;28;48599;-70
2022/09/20 12:07:55;;;;;;;;;2.33;2.33;;;;;19.85;86.07;102211.78;5049456;28;45467;-70
2022/09/20 12:10:22;;;;;;;;;2.67;2.67;;;;;19.81;85.32;102216.25;5056125;28;45373;-70
2022/09/20 12:12:50;;;;;;;;;5.67;2.67;;;;;19.80;86.15;102210.91;5056110;28;45557;-69